createdAt,value
2023-02-02T00:00:20.570Z,3.90
2023-02-02T00:00:51.925Z,3.60
2023-02-02T00:01:24.045Z,3.85
2023-02-02T00:01:56.468Z,3.47
2023-02-02T00:02:27.842Z,4.03
2023-02-02T00:02:59.301Z,4.05
2023-02-02T00:03:30.684Z,3.88
2023-02-02T00:04:02.437Z,4.35
2023-02-02T00:04:35.440Z,4.47
2023-02-02T00:05:06.959Z,3.70
2023-02-02T00:05:38.324Z,4.18
2023-02-02T00:06:09.992Z,4.30
2023-02-02T00:06:41.359Z,4.45
2023-02-02T00:07:12.731Z,3.72
2023-02-02T00:07:44.099Z,3.97
2023-02-02T00:08:16.368Z,3.95
2023-02-02T00:08:47.970Z,5.05
2023-02-02T00:09:20.059Z,4.85
2023-02-02T00:09:51.414Z,4.80
2023-02-02T00:10:22.773Z,5.45
2023-02-02T00:10:54.167Z,5.07
2023-02-02T00:11:25.966Z,5.40
2023-02-02T00:11:57.936Z,4.97
2023-02-02T00:12:29.284Z,5.65
2023-02-02T00:13:00.644Z,5.75
2023-02-02T00:13:32.174Z,5.90
2023-02-02T00:14:03.548Z,5.35
2023-02-02T00:14:34.935Z,5.60
2023-02-02T00:15:06.581Z,5.35
2023-02-02T00:15:38.306Z,4.60
2023-02-02T00:16:28.244Z,5.22
2023-02-02T00:16:59.589Z,5.30
2023-02-02T00:17:30.944Z,5.32
2023-02-02T00:18:02.573Z,4.63
2023-02-02T00:18:33.916Z,3.28
2023-02-02T00:19:06.834Z,3.88
2023-02-02T00:19:38.202Z,4.15
2023-02-02T00:20:09.795Z,3.90
2023-02-02T00:20:41.139Z,3.58
2023-02-02T00:21:12.510Z,4.53
2023-02-02T00:21:44.233Z,3.50
2023-02-02T00:22:15.586Z,4.10
2023-02-02T00:22:46.917Z,3.78
2023-02-02T00:23:18.277Z,3.60
2023-02-02T00:23:49.624Z,3.90
2023-02-02T00:24:21.309Z,3.75
2023-02-02T00:24:52.649Z,4.90
2023-02-02T00:25:24.339Z,3.00
2023-02-02T00:25:55.819Z,4.43
2023-02-02T00:26:27.471Z,3.67
2023-02-02T00:26:59.803Z,3.95
2023-02-02T00:27:31.168Z,3.40
2023-02-02T00:28:02.511Z,3.50
2023-02-02T00:28:33.892Z,3.10
2023-02-02T00:29:05.853Z,3.33
2023-02-02T00:29:37.202Z,3.15
2023-02-02T00:30:08.978Z,3.33
2023-02-02T00:30:40.329Z,3.80
2023-02-02T00:31:12.010Z,3.72
2023-02-02T00:31:43.612Z,3.47
2023-02-02T00:32:15.043Z,3.28
2023-02-02T00:32:46.418Z,2.75
2023-02-02T00:33:17.765Z,2.65
2023-02-02T00:33:49.940Z,2.70
2023-02-02T00:34:21.655Z,3.53
2023-02-02T00:34:53.021Z,3.17
2023-02-02T00:35:24.729Z,4.80
2023-02-02T00:35:56.258Z,3.58
2023-02-02T00:36:27.618Z,3.03
2023-02-02T00:36:58.963Z,3.28
2023-02-02T00:37:30.380Z,2.92
2023-02-02T00:38:01.870Z,3.58
2023-02-02T00:38:33.207Z,3.05
2023-02-02T00:39:04.587Z,2.83
2023-02-02T00:39:35.954Z,3.17
2023-02-02T00:40:07.634Z,3.13
2023-02-02T00:40:38.992Z,3.72
2023-02-02T00:41:10.390Z,2.65
2023-02-02T00:41:41.769Z,3.47
2023-02-02T00:42:13.131Z,3.38
2023-02-02T00:42:44.503Z,3.92
2023-02-02T00:43:15.861Z,3.38
2023-02-02T00:43:47.235Z,4.07
2023-02-02T00:44:18.608Z,3.83
2023-02-02T00:44:49.988Z,3.78
2023-02-02T00:45:21.542Z,4.25
2023-02-02T00:45:53.211Z,4.18
2023-02-02T00:46:24.606Z,4.38
2023-02-02T00:46:55.995Z,5.05
2023-02-02T00:47:27.334Z,4.43
2023-02-02T00:47:58.755Z,4.97
2023-02-02T00:48:30.161Z,4.60
2023-02-02T00:49:01.567Z,4.57
2023-02-02T00:49:32.945Z,4.80
2023-02-02T00:50:04.487Z,5.80
2023-02-02T00:50:35.861Z,5.03
2023-02-02T00:51:07.238Z,5.60
2023-02-02T00:51:38.636Z,5.90
2023-02-02T00:52:10.013Z,5.75
2023-02-02T00:52:41.501Z,5.55
2023-02-02T00:53:12.935Z,5.60
2023-02-02T00:53:44.304Z,5.20
2023-02-02T00:54:15.688Z,6.50
2023-02-02T00:54:47.142Z,6.40
2023-02-02T00:55:18.670Z,5.85
2023-02-02T00:55:50.060Z,6.50
2023-02-02T00:56:21.463Z,5.70
2023-02-02T00:56:52.832Z,6.97
2023-02-02T00:57:24.205Z,5.88
2023-02-02T00:57:55.653Z,6.10
2023-02-02T00:58:27.063Z,6.47
2023-02-02T00:58:58.417Z,6.30
2023-02-02T00:59:29.843Z,6.50
2023-02-02T01:00:01.238Z,6.30
2023-02-02T01:00:32.592Z,5.95
2023-02-02T01:01:04.377Z,5.30
2023-02-02T01:01:35.859Z,5.70
2023-02-02T01:02:07.226Z,5.90
2023-02-02T01:02:38.587Z,7.28
2023-02-02T01:03:09.966Z,5.90
2023-02-02T01:03:41.367Z,6.13
2023-02-02T01:04:12.714Z,7.28
2023-02-02T01:04:44.089Z,5.88
2023-02-02T01:05:15.776Z,6.23
2023-02-02T01:05:47.120Z,5.85
2023-02-02T01:06:18.497Z,5.20
2023-02-02T01:06:49.858Z,5.72
2023-02-02T01:07:21.249Z,6.15
2023-02-02T01:07:52.610Z,6.65
2023-02-02T01:08:23.972Z,6.35
2023-02-02T01:08:55.455Z,6.00
2023-02-02T01:09:26.876Z,8.10
2023-02-02T01:09:58.317Z,6.68
2023-02-02T01:10:29.643Z,6.82
2023-02-02T01:11:00.992Z,6.60
2023-02-02T01:11:32.374Z,7.15
2023-02-02T01:12:03.874Z,7.05
2023-02-02T01:12:35.255Z,7.30
2023-02-02T01:13:06.629Z,7.05
2023-02-02T01:13:38.081Z,7.35
2023-02-02T01:14:09.449Z,6.20
2023-02-02T01:14:40.787Z,6.72
2023-02-02T01:15:12.443Z,7.43
2023-02-02T01:15:43.813Z,7.20
2023-02-02T01:16:15.290Z,7.22
2023-02-02T01:16:46.733Z,7.77
2023-02-02T01:17:18.147Z,6.82
2023-02-02T01:17:49.537Z,6.45
2023-02-02T01:18:20.881Z,7.18
2023-02-02T01:18:52.668Z,6.30
2023-02-02T01:19:24.369Z,6.78
2023-02-02T01:19:55.726Z,6.55
2023-02-02T01:20:27.072Z,6.18
2023-02-02T01:20:58.400Z,7.15
2023-02-02T01:21:29.785Z,7.03
2023-02-02T01:22:02.766Z,5.85
2023-02-02T01:22:34.850Z,5.38
2023-02-02T01:23:06.248Z,5.90
2023-02-02T01:23:38.417Z,6.05
2023-02-02T01:24:09.879Z,5.75
2023-02-02T01:24:41.246Z,6.13
2023-02-02T01:25:13.154Z,6.20
2023-02-02T01:25:45.535Z,6.10
2023-02-02T01:26:17.132Z,5.25
2023-02-02T01:26:48.601Z,5.25
2023-02-02T01:27:19.995Z,4.65
2023-02-02T01:27:51.334Z,5.28
2023-02-02T01:28:23.051Z,5.10
2023-02-02T01:28:54.414Z,4.07
2023-02-02T01:29:25.815Z,4.63
2023-02-02T01:29:57.213Z,4.30
2023-02-02T01:30:28.558Z,4.32
2023-02-02T01:31:04.841Z,5.20
2023-02-02T01:31:36.287Z,3.72
2023-02-02T01:32:07.910Z,4.55
2023-02-02T01:32:39.277Z,4.57
2023-02-02T01:33:10.609Z,4.82
2023-02-02T01:33:42.593Z,4.10
2023-02-02T01:34:13.940Z,3.88
2023-02-02T01:34:45.319Z,4.15
2023-02-02T01:35:16.767Z,4.38
2023-02-02T01:35:49.057Z,4.18
2023-02-02T01:36:21.549Z,3.97
2023-02-02T01:36:52.915Z,4.53
2023-02-02T01:37:24.311Z,3.78
2023-02-02T01:37:55.673Z,3.50
2023-02-02T01:38:27.016Z,4.18
2023-02-02T01:38:58.367Z,3.55
2023-02-02T01:39:29.741Z,3.28
2023-02-02T01:40:01.095Z,3.60
2023-02-02T01:40:32.476Z,3.92
2023-02-02T01:41:04.414Z,4.18
2023-02-02T01:41:35.830Z,4.30
2023-02-02T01:42:14.995Z,3.90
2023-02-02T01:42:46.343Z,4.20
2023-02-02T01:43:25.175Z,4.13
2023-02-02T01:43:58.714Z,3.58
2023-02-02T01:44:48.842Z,3.60
2023-02-02T01:45:25.634Z,4.55
2023-02-02T01:45:58.215Z,3.88
2023-02-02T01:46:36.448Z,4.13
2023-02-02T01:47:07.931Z,4.70
2023-02-02T01:47:41.501Z,4.80
2023-02-02T01:48:13.340Z,4.13
2023-02-02T01:49:05.776Z,3.85
2023-02-02T01:49:37.645Z,4.00
2023-02-02T01:50:10.190Z,3.58
2023-02-02T01:50:41.850Z,3.88
2023-02-02T01:51:17.713Z,3.38
2023-02-02T01:51:55.101Z,3.95
2023-02-02T01:52:29.027Z,4.03
2023-02-02T01:53:01.175Z,4.13
2023-02-02T01:53:32.913Z,3.72
2023-02-02T01:54:06.268Z,3.55
2023-02-02T01:54:39.980Z,4.03
2023-02-02T01:55:12.555Z,4.13
2023-02-02T01:55:44.349Z,4.00
2023-02-02T01:56:19.128Z,3.75
2023-02-02T01:56:52.888Z,3.50
2023-02-02T01:57:27.496Z,4.22
2023-02-02T01:58:06.559Z,3.53
2023-02-02T01:58:39.570Z,3.88
2023-02-02T01:59:11.182Z,4.37
2023-02-02T01:59:43.436Z,3.55
2023-02-02T02:00:15.763Z,3.58
2023-02-02T02:00:47.263Z,3.53
2023-02-02T02:01:18.723Z,4.13
2023-02-02T02:01:51.474Z,3.70
2023-02-02T02:02:23.298Z,4.10
2023-02-02T02:03:00.559Z,4.85
2023-02-02T02:03:32.941Z,3.77
2023-02-02T02:04:04.426Z,3.92
2023-02-02T02:04:35.869Z,3.50
2023-02-02T02:05:07.803Z,3.92
2023-02-02T02:05:42.947Z,4.03
2023-02-02T02:06:18.453Z,3.88
2023-02-02T02:06:49.918Z,3.97
2023-02-02T02:07:21.942Z,3.65
2023-02-02T02:07:54.334Z,3.80
2023-02-02T02:08:35.703Z,3.70
2023-02-02T02:09:07.282Z,3.95
2023-02-02T02:09:38.661Z,3.00
2023-02-02T02:10:10.618Z,3.80
2023-02-02T02:10:41.969Z,3.67
2023-02-02T02:11:13.607Z,3.40
2023-02-02T02:11:45.287Z,3.38
2023-02-02T02:12:16.678Z,3.72
2023-02-02T02:12:48.429Z,4.47
2023-02-02T02:13:20.692Z,3.80
2023-02-02T02:13:54.062Z,3.60
2023-02-02T02:14:25.867Z,3.63
2023-02-02T02:14:57.264Z,3.70
2023-02-02T02:15:31.661Z,4.18
2023-02-02T02:16:10.500Z,3.75
2023-02-02T02:16:50.816Z,3.05
2023-02-02T02:17:24.847Z,3.85
2023-02-02T02:18:14.623Z,3.88
2023-02-02T02:18:52.771Z,3.25
2023-02-02T02:19:36.455Z,3.42
2023-02-02T02:20:10.832Z,3.53
2023-02-02T02:21:02.425Z,3.33
2023-02-02T02:21:47.223Z,3.92
2023-02-02T02:22:19.706Z,3.78
2023-02-02T02:23:02.953Z,4.07
2023-02-02T02:23:49.446Z,3.20
2023-02-02T02:24:32.819Z,4.28
2023-02-02T02:25:22.619Z,4.05
2023-02-02T02:25:54.139Z,3.42
2023-02-02T02:26:44.101Z,3.67
2023-02-02T02:27:34.385Z,4.03
2023-02-02T02:28:24.389Z,3.90
2023-02-02T02:29:04.758Z,3.40
2023-02-02T02:29:55.113Z,3.35
2023-02-02T02:30:50.953Z,3.25
2023-02-02T02:31:39.134Z,3.25
2023-02-02T02:32:29.480Z,3.75
2023-02-02T02:33:03.941Z,3.65
2023-02-02T02:33:41.100Z,3.88
2023-02-02T02:34:24.775Z,3.42
2023-02-02T02:35:01.983Z,4.30
2023-02-02T02:35:41.373Z,3.95
2023-02-02T02:36:23.723Z,3.80
2023-02-02T02:37:08.764Z,4.00
2023-02-02T02:37:55.350Z,4.25
2023-02-02T02:38:50.551Z,5.13
2023-02-02T02:39:21.934Z,5.20
2023-02-02T02:39:56.041Z,5.57
2023-02-02T02:40:36.616Z,5.65
2023-02-02T02:41:14.308Z,5.72
2023-02-02T02:41:49.068Z,7.13
2023-02-02T02:42:22.476Z,5.75
2023-02-02T02:43:02.548Z,4.88
2023-02-02T02:43:50.361Z,4.93
2023-02-02T02:44:21.902Z,4.60
2023-02-02T02:44:54.818Z,4.90
2023-02-02T02:45:27.349Z,5.05
2023-02-02T02:45:59.009Z,4.43
2023-02-02T02:46:31.003Z,5.18
2023-02-02T02:47:03.021Z,3.60
2023-02-02T02:47:34.934Z,4.50
2023-02-02T02:48:08.252Z,4.97
2023-02-02T02:48:39.625Z,4.85
2023-02-02T02:49:11.646Z,5.18
2023-02-02T02:49:43.949Z,5.15
2023-02-02T02:50:15.544Z,5.25
2023-02-02T02:50:46.931Z,4.53
2023-02-02T02:51:36.977Z,4.05
2023-02-02T02:52:08.711Z,4.70
2023-02-02T02:52:40.405Z,4.93
2023-02-02T02:53:14.726Z,5.05
2023-02-02T02:53:46.076Z,4.55
2023-02-02T02:54:20.533Z,3.92
2023-02-02T02:54:53.630Z,3.90
2023-02-02T02:55:25.804Z,4.25
2023-02-02T02:56:05.506Z,4.93
2023-02-02T02:56:36.800Z,4.28
2023-02-02T02:57:26.930Z,5.05
2023-02-02T02:58:01.109Z,4.60
2023-02-02T02:58:47.721Z,4.70
2023-02-02T02:59:25.188Z,4.78
2023-02-02T03:00:02.143Z,4.28
2023-02-02T03:00:33.445Z,4.73
2023-02-02T03:01:34.063Z,4.38
2023-02-02T03:02:14.436Z,4.68
2023-02-02T03:03:00.371Z,4.55
2023-02-02T03:03:37.784Z,4.43
2023-02-02T03:04:23.050Z,4.70
2023-02-02T03:05:00.455Z,4.35
2023-02-02T03:05:36.949Z,4.50
2023-02-02T03:06:13.062Z,4.45
2023-02-02T03:06:47.375Z,4.22
2023-02-02T03:07:33.020Z,4.75
2023-02-02T03:08:07.480Z,4.57
2023-02-02T03:08:38.791Z,3.63
2023-02-02T03:09:15.644Z,4.65
2023-02-02T03:09:47.471Z,4.55
2023-02-02T03:10:21.601Z,5.00
2023-02-02T03:10:53.932Z,4.60
2023-02-02T03:11:25.391Z,4.45
2023-02-02T03:11:57.067Z,5.07
2023-02-02T03:12:28.500Z,4.68
2023-02-02T03:12:59.875Z,5.20
2023-02-02T03:13:31.491Z,5.53
2023-02-02T03:14:03.684Z,5.22
2023-02-02T03:14:35.622Z,5.20
2023-02-02T03:15:07.173Z,4.60
2023-02-02T03:15:41.782Z,5.70
2023-02-02T03:16:14.760Z,5.10
2023-02-02T03:16:46.095Z,5.90
2023-02-02T03:17:17.464Z,5.05
2023-02-02T03:17:50.254Z,5.70
2023-02-02T03:18:22.836Z,5.70
2023-02-02T03:18:54.369Z,6.95
2023-02-02T03:19:25.730Z,5.65
2023-02-02T03:19:57.072Z,5.63
2023-02-02T03:20:28.503Z,5.97
2023-02-02T03:20:59.821Z,6.20
2023-02-02T03:21:31.543Z,7.13
2023-02-02T03:22:02.903Z,6.30
2023-02-02T03:22:34.322Z,5.30
2023-02-02T03:23:05.687Z,6.05
2023-02-02T03:23:37.045Z,5.55
2023-02-02T03:24:08.658Z,5.80
2023-02-02T03:24:40.030Z,5.68
2023-02-02T03:25:11.359Z,4.70
2023-02-02T03:25:43.429Z,5.35
2023-02-02T03:26:14.766Z,4.82
2023-02-02T03:26:46.291Z,5.10
2023-02-02T03:27:17.663Z,5.90
2023-02-02T03:27:49.352Z,5.50
2023-02-02T03:28:21.428Z,5.60
2023-02-02T03:28:53.571Z,5.70
2023-02-02T03:29:25.253Z,5.82
2023-02-02T03:29:56.641Z,6.95
2023-02-02T03:30:28.228Z,9.30
2023-02-02T03:31:00.748Z,7.88
2023-02-02T03:31:32.205Z,7.90
2023-02-02T03:32:03.785Z,8.00
2023-02-02T03:32:35.368Z,7.80
2023-02-02T03:33:07.003Z,7.95
2023-02-02T03:33:38.501Z,8.80
2023-02-02T03:34:09.867Z,7.82
2023-02-02T03:34:41.253Z,6.80
2023-02-02T03:35:12.633Z,7.03
2023-02-02T03:35:44.366Z,7.20
2023-02-02T03:36:15.700Z,6.18
2023-02-02T03:36:47.041Z,6.95
2023-02-02T03:37:18.407Z,5.90
2023-02-02T03:37:49.742Z,5.97
2023-02-02T03:38:21.080Z,6.50
2023-02-02T03:38:52.412Z,6.60
2023-02-02T03:39:23.790Z,7.63
2023-02-02T03:39:55.175Z,7.18
2023-02-02T03:40:27.587Z,10.30
2023-02-02T03:40:58.913Z,10.02
2023-02-02T03:41:30.254Z,8.70
2023-02-02T03:42:01.596Z,10.23
2023-02-02T03:42:32.935Z,9.55
2023-02-02T03:43:04.527Z,11.23
2023-02-02T03:43:35.893Z,12.88
2023-02-02T03:44:07.253Z,12.63
2023-02-02T03:44:38.595Z,11.85
2023-02-02T03:45:10.498Z,12.13
2023-02-02T03:45:41.836Z,11.95
2023-02-02T03:46:13.197Z,12.98
2023-02-02T03:46:44.599Z,13.70
2023-02-02T03:47:16.037Z,12.70
2023-02-02T03:47:47.379Z,15.20
2023-02-02T03:48:18.697Z,16.33
2023-02-02T03:48:50.065Z,15.45
2023-02-02T03:49:21.536Z,16.42
2023-02-02T03:49:52.893Z,14.68
2023-02-02T03:50:24.381Z,14.47
2023-02-02T03:50:55.786Z,21.02
2023-02-02T03:51:27.103Z,21.60
2023-02-02T03:51:58.439Z,16.50
2023-02-02T03:52:29.765Z,19.90
2023-02-02T03:53:01.112Z,18.83
2023-02-02T03:53:32.437Z,20.45
2023-02-02T03:54:04.266Z,19.05
2023-02-02T03:54:35.600Z,17.60
2023-02-02T03:55:07.193Z,19.83
2023-02-02T03:55:38.553Z,19.70
2023-02-02T03:56:10.483Z,17.92
2023-02-02T03:56:41.806Z,17.33
2023-02-02T03:57:13.132Z,15.85
2023-02-02T03:57:44.457Z,15.43
2023-02-02T03:58:15.785Z,12.60
2023-02-02T03:58:47.202Z,15.32
2023-02-02T03:59:18.529Z,14.20
2023-02-02T03:59:49.887Z,11.07
2023-02-02T04:00:21.364Z,11.48
2023-02-02T04:00:52.735Z,12.35
2023-02-02T04:01:28.121Z,14.15
2023-02-02T04:01:59.559Z,13.23
2023-02-02T04:02:30.987Z,9.95
2023-02-02T04:03:02.337Z,10.93
2023-02-02T04:03:33.815Z,12.18
2023-02-02T04:04:05.156Z,12.85
2023-02-02T04:04:36.525Z,12.93
2023-02-02T04:05:08.104Z,10.57
2023-02-02T04:05:39.445Z,9.00
2023-02-02T04:06:10.821Z,9.57
2023-02-02T04:06:42.237Z,7.35
2023-02-02T04:07:13.739Z,7.32
2023-02-02T04:07:45.111Z,9.60
2023-02-02T04:08:16.472Z,8.95
2023-02-02T04:08:47.808Z,8.38
2023-02-02T04:09:19.138Z,8.40
2023-02-02T04:09:50.476Z,8.32
2023-02-02T04:10:21.827Z,7.28
2023-02-02T04:10:53.307Z,6.78
2023-02-02T04:11:24.666Z,7.97
2023-02-02T04:11:55.994Z,7.80
2023-02-02T04:12:27.337Z,7.05
2023-02-02T04:12:58.671Z,6.63
2023-02-02T04:13:30.011Z,5.82
2023-02-02T04:14:01.359Z,4.68
2023-02-02T04:14:32.689Z,7.10
2023-02-02T04:15:04.279Z,5.72
2023-02-02T04:15:35.636Z,6.05
2023-02-02T04:16:07.069Z,6.60
2023-02-02T04:16:38.450Z,8.05
2023-02-02T04:17:09.829Z,6.18
2023-02-02T04:17:41.165Z,6.55
2023-02-02T04:18:12.653Z,6.03
2023-02-02T04:18:43.998Z,6.27
2023-02-02T04:19:15.440Z,5.10
2023-02-02T04:19:46.781Z,6.15
2023-02-02T04:20:18.182Z,5.45
2023-02-02T04:20:49.536Z,5.05
2023-02-02T04:21:20.890Z,5.53
2023-02-02T04:21:53.060Z,5.05
2023-02-02T04:22:24.820Z,4.78
2023-02-02T04:22:56.163Z,4.93
2023-02-02T04:23:28.371Z,4.30
2023-02-02T04:23:59.979Z,4.43
2023-02-02T04:24:31.318Z,5.10
2023-02-02T04:25:02.705Z,4.97
2023-02-02T04:25:34.038Z,4.82
2023-02-02T04:26:05.625Z,5.43
2023-02-02T04:26:37.188Z,5.07
2023-02-02T04:27:08.548Z,5.32
2023-02-02T04:27:39.879Z,4.45
2023-02-02T04:28:11.220Z,4.40
2023-02-02T04:28:42.532Z,4.47
2023-02-02T04:29:13.886Z,4.60
2023-02-02T04:29:45.268Z,4.97
2023-02-02T04:30:16.784Z,4.88
2023-02-02T04:30:48.114Z,5.32
2023-02-02T04:31:19.516Z,4.78
2023-02-02T04:31:50.962Z,4.43
2023-02-02T04:32:22.352Z,4.53
2023-02-02T04:32:54.617Z,4.72
2023-02-02T04:33:27.015Z,5.53
2023-02-02T04:33:58.892Z,4.38
2023-02-02T04:34:30.229Z,4.47
2023-02-02T04:35:01.558Z,4.90
2023-02-02T04:35:32.919Z,4.70
2023-02-02T04:36:04.461Z,4.88
2023-02-02T04:36:35.776Z,5.65
2023-02-02T04:37:07.135Z,5.10
2023-02-02T04:37:38.471Z,4.97
2023-02-02T04:38:10.132Z,5.30
2023-02-02T04:38:41.504Z,4.38
2023-02-02T04:39:12.833Z,4.93
2023-02-02T04:39:44.234Z,5.60
2023-02-02T04:40:15.636Z,4.88
2023-02-02T04:40:47.717Z,5.33
2023-02-02T04:41:19.256Z,5.63
2023-02-02T04:41:50.610Z,5.60
2023-02-02T04:42:21.963Z,6.18
2023-02-02T04:42:53.404Z,6.30
2023-02-02T04:43:24.759Z,6.03
2023-02-02T04:43:56.077Z,6.57
2023-02-02T04:44:27.430Z,6.10
2023-02-02T04:44:58.745Z,6.85
2023-02-02T04:45:30.120Z,7.47
2023-02-02T04:46:01.669Z,7.78
2023-02-02T04:46:33.029Z,8.43
2023-02-02T04:47:04.410Z,7.18
2023-02-02T04:47:35.761Z,6.88
2023-02-02T04:48:07.118Z,6.40
2023-02-02T04:48:38.483Z,5.82
2023-02-02T04:49:10.619Z,4.95
2023-02-02T04:49:41.979Z,4.67
2023-02-02T04:50:13.325Z,5.55
2023-02-02T04:50:44.732Z,5.45
2023-02-02T04:51:16.085Z,4.72
2023-02-02T04:51:47.637Z,4.53
2023-02-02T04:52:18.988Z,4.03
2023-02-02T04:52:50.358Z,3.55
2023-02-02T04:53:21.707Z,4.07
2023-02-02T04:53:53.036Z,3.50
2023-02-02T04:54:24.372Z,3.33
2023-02-02T04:54:55.706Z,3.45
2023-02-02T04:55:27.254Z,3.95
2023-02-02T04:56:04.457Z,4.22
2023-02-02T04:56:35.820Z,5.43
2023-02-02T04:57:07.153Z,4.47
2023-02-02T04:57:38.578Z,3.50
2023-02-02T04:58:09.944Z,3.70
2023-02-02T04:58:41.692Z,4.40
2023-02-02T04:59:13.053Z,4.03
2023-02-02T04:59:44.392Z,3.58
2023-02-02T05:00:15.930Z,3.87
2023-02-02T05:00:47.307Z,4.35
2023-02-02T05:01:19.289Z,3.95
2023-02-02T05:01:50.677Z,4.25
2023-02-02T05:02:22.007Z,4.10
2023-02-02T05:02:53.325Z,3.63
2023-02-02T05:03:24.691Z,3.83
2023-02-02T05:03:56.429Z,3.80
2023-02-02T05:04:27.990Z,4.43
2023-02-02T05:04:59.428Z,4.45
2023-02-02T05:05:30.778Z,3.53
2023-02-02T05:06:02.705Z,3.83
2023-02-02T05:06:34.172Z,4.38
2023-02-02T05:07:05.507Z,3.92
2023-02-02T05:07:36.860Z,3.92
2023-02-02T05:08:08.173Z,5.18
2023-02-02T05:08:39.693Z,4.32
2023-02-02T05:09:11.192Z,5.57
2023-02-02T05:09:42.533Z,4.28
2023-02-02T05:10:13.875Z,4.75
2023-02-02T05:10:45.199Z,4.00
2023-02-02T05:11:17.945Z,5.00
2023-02-02T05:11:49.300Z,4.60
2023-02-02T05:12:20.623Z,5.00
2023-02-02T05:12:55.290Z,4.75
2023-02-02T05:13:26.619Z,4.78
2023-02-02T05:13:57.989Z,5.35
2023-02-02T05:14:29.343Z,6.55
2023-02-02T05:15:00.693Z,6.20
2023-02-02T05:15:32.035Z,6.60
2023-02-02T05:16:03.439Z,7.95
2023-02-02T05:16:34.803Z,11.30
2023-02-02T05:17:06.164Z,9.00
2023-02-02T05:17:37.500Z,10.18
2023-02-02T05:18:08.843Z,7.75
2023-02-02T05:18:40.886Z,8.77
2023-02-02T05:19:12.315Z,10.85
2023-02-02T05:19:43.673Z,10.15
2023-02-02T05:20:15.125Z,11.48
2023-02-02T05:20:46.460Z,13.00
2023-02-02T05:21:18.125Z,13.10
2023-02-02T05:21:51.144Z,13.02
2023-02-02T05:22:22.929Z,12.57
2023-02-02T05:22:54.283Z,11.80
2023-02-02T05:23:25.648Z,10.13
2023-02-02T05:23:57.409Z,12.35
2023-02-02T05:24:28.761Z,10.65
2023-02-02T05:25:00.124Z,10.65
2023-02-02T05:25:31.466Z,8.88
2023-02-02T05:26:02.835Z,10.13
2023-02-02T05:26:34.204Z,9.07
2023-02-02T05:27:05.554Z,8.77
2023-02-02T05:27:36.874Z,8.57
2023-02-02T05:28:08.208Z,7.70
2023-02-02T05:28:39.542Z,7.53
2023-02-02T05:29:10.917Z,7.35
2023-02-02T05:29:42.495Z,6.93
2023-02-02T05:30:14.268Z,7.38
2023-02-02T05:30:45.628Z,6.75
2023-02-02T05:31:17.150Z,6.43
2023-02-02T05:31:48.642Z,6.63
2023-02-02T05:32:19.967Z,5.68
2023-02-02T05:32:51.334Z,5.40
2023-02-02T05:33:22.669Z,5.72
2023-02-02T05:33:54.038Z,6.28
2023-02-02T05:34:25.400Z,6.38
2023-02-02T05:34:56.759Z,5.30
2023-02-02T05:35:28.102Z,5.43
2023-02-02T05:35:59.444Z,6.07
2023-02-02T05:36:30.764Z,6.10
2023-02-02T05:37:02.112Z,6.88
2023-02-02T05:37:33.481Z,6.05
2023-02-02T05:38:04.979Z,6.07
2023-02-02T05:38:36.345Z,5.20
2023-02-02T05:39:07.678Z,5.18
2023-02-02T05:39:38.996Z,4.93
2023-02-02T05:40:10.685Z,4.85
2023-02-02T05:40:42.091Z,4.97
2023-02-02T05:41:13.444Z,5.00
2023-02-02T05:41:44.797Z,4.90
2023-02-02T05:42:16.135Z,4.78
2023-02-02T05:42:48.102Z,4.85
2023-02-02T05:43:21.538Z,4.30
2023-02-02T05:43:52.976Z,4.20
2023-02-02T05:44:24.325Z,4.20
2023-02-02T05:44:55.674Z,4.20
2023-02-02T05:45:27.199Z,4.38
2023-02-02T05:45:58.678Z,4.65
2023-02-02T05:46:30.388Z,6.00
2023-02-02T05:47:01.709Z,4.82
2023-02-02T05:47:33.034Z,4.68
2023-02-02T05:48:04.425Z,5.13
2023-02-02T05:48:35.763Z,5.32
2023-02-02T05:49:07.232Z,4.90
2023-02-02T05:49:38.614Z,6.03
2023-02-02T05:50:10.171Z,5.38
2023-02-02T05:50:42.805Z,5.15
2023-02-02T05:51:19.954Z,4.18
2023-02-02T05:51:55.187Z,4.35
2023-02-02T05:52:26.714Z,5.13
2023-02-02T05:52:58.789Z,4.50
2023-02-02T05:53:30.985Z,4.68
2023-02-02T05:54:02.311Z,4.65
2023-02-02T05:54:33.648Z,4.35
2023-02-02T05:55:05.205Z,3.90
2023-02-02T05:55:36.552Z,4.35
2023-02-02T05:56:07.922Z,4.28
2023-02-02T05:56:39.264Z,4.43
2023-02-02T05:57:10.616Z,4.30
2023-02-02T05:57:41.984Z,4.18
2023-02-02T05:58:13.619Z,4.00
2023-02-02T05:58:45.005Z,4.82
2023-02-02T05:59:16.716Z,5.03
2023-02-02T05:59:48.063Z,4.13
2023-02-02T06:00:19.593Z,4.38
2023-02-02T06:00:50.994Z,4.60
2023-02-02T06:01:22.415Z,5.03
2023-02-02T06:01:53.744Z,4.83
2023-02-02T06:02:25.068Z,4.45
2023-02-02T06:02:56.420Z,3.97
2023-02-02T06:03:27.853Z,4.85
2023-02-02T06:03:59.278Z,3.75
2023-02-02T06:04:30.679Z,4.13
2023-02-02T06:05:02.048Z,4.05
2023-02-02T06:05:33.399Z,3.63
2023-02-02T06:06:06.847Z,4.45
2023-02-02T06:06:38.439Z,3.80
2023-02-02T06:07:09.765Z,4.20
2023-02-02T06:07:41.113Z,4.30
2023-02-02T06:08:12.456Z,4.00
2023-02-02T06:08:43.770Z,3.72
2023-02-02T06:09:15.144Z,4.13
2023-02-02T06:09:46.486Z,5.13
2023-02-02T06:10:17.859Z,4.15
2023-02-02T06:10:49.186Z,4.15
2023-02-02T06:11:20.536Z,4.60
2023-02-02T06:11:51.913Z,4.00
2023-02-02T06:12:23.234Z,4.30
2023-02-02T06:12:54.583Z,4.35
2023-02-02T06:13:25.930Z,3.92
2023-02-02T06:13:57.420Z,4.53
2023-02-02T06:14:28.792Z,3.65
2023-02-02T06:15:00.152Z,4.43
2023-02-02T06:15:31.551Z,3.80
2023-02-02T06:16:03.040Z,3.40
2023-02-02T06:16:34.584Z,3.47
2023-02-02T06:17:05.936Z,3.90
2023-02-02T06:17:37.491Z,4.43
2023-02-02T06:18:08.891Z,3.85
2023-02-02T06:18:40.399Z,4.03
2023-02-02T06:19:11.734Z,4.28
2023-02-02T06:19:43.277Z,5.72
2023-02-02T06:20:14.660Z,4.50
2023-02-02T06:20:45.977Z,4.72
2023-02-02T06:21:17.508Z,4.45
2023-02-02T06:21:48.866Z,5.27
2023-02-02T06:22:20.232Z,5.20
2023-02-02T06:22:51.589Z,5.05
2023-02-02T06:23:22.913Z,4.93
2023-02-02T06:23:54.246Z,5.32
2023-02-02T06:24:25.641Z,5.22
2023-02-02T06:24:56.982Z,5.32
2023-02-02T06:25:28.368Z,6.20
2023-02-02T06:25:59.827Z,6.40
2023-02-02T06:26:31.246Z,7.30
2023-02-02T06:27:02.663Z,7.53
2023-02-02T06:27:34.084Z,7.45
2023-02-02T06:28:05.452Z,7.43
2023-02-02T06:28:36.797Z,7.18
2023-02-02T06:29:11.616Z,5.97
2023-02-02T06:29:42.931Z,6.80
2023-02-02T06:30:14.456Z,7.13
2023-02-02T06:30:45.845Z,6.53
2023-02-02T06:31:17.659Z,7.53
2023-02-02T06:31:49.147Z,8.35
2023-02-02T06:32:20.534Z,7.38
2023-02-02T06:32:52.205Z,8.13
2023-02-02T06:33:23.579Z,6.80
2023-02-02T06:33:55.819Z,6.22
2023-02-02T06:34:27.179Z,5.72
2023-02-02T06:34:58.526Z,4.65
2023-02-02T06:35:29.951Z,4.57
2023-02-02T06:36:02.040Z,4.33
2023-02-02T06:36:33.372Z,4.93
2023-02-02T06:37:04.687Z,4.22
2023-02-02T06:37:36.018Z,3.93
2023-02-02T06:38:07.390Z,4.30
2023-02-02T06:38:38.896Z,4.20
2023-02-02T06:39:10.222Z,3.95
2023-02-02T06:39:41.771Z,3.95
2023-02-02T06:40:13.099Z,4.35
2023-02-02T06:40:44.456Z,4.33
2023-02-02T06:41:15.785Z,3.88
2023-02-02T06:41:47.119Z,3.53
2023-02-02T06:42:21.619Z,3.90
2023-02-02T06:43:01.543Z,3.60
2023-02-02T06:43:33.066Z,4.00
2023-02-02T06:44:04.423Z,4.45
2023-02-02T06:44:35.783Z,4.25
2023-02-02T06:45:07.436Z,3.65
2023-02-02T06:45:38.770Z,4.15
2023-02-02T06:46:10.120Z,3.53
2023-02-02T06:46:42.034Z,3.78
2023-02-02T06:47:13.436Z,3.85
2023-02-02T06:47:44.782Z,4.20
2023-02-02T06:48:16.107Z,3.92
2023-02-02T06:48:47.491Z,4.43
2023-02-02T06:49:18.832Z,4.35
2023-02-02T06:49:50.235Z,4.60
2023-02-02T06:50:21.573Z,4.15
2023-02-02T06:50:52.904Z,4.47
2023-02-02T06:51:24.286Z,4.50
2023-02-02T06:51:55.618Z,4.40
2023-02-02T06:52:26.963Z,4.00
2023-02-02T06:52:58.295Z,4.40
2023-02-02T06:53:29.615Z,4.05
2023-02-02T06:54:00.986Z,3.58
2023-02-02T06:54:32.317Z,2.97
2023-02-02T06:55:03.763Z,3.92
2023-02-02T06:55:35.104Z,4.50
2023-02-02T06:56:07.656Z,3.93
2023-02-02T06:56:39.059Z,3.30
2023-02-02T06:57:10.427Z,4.35
2023-02-02T06:57:41.803Z,3.42
2023-02-02T06:58:13.131Z,4.07
2023-02-02T06:58:44.673Z,3.63
2023-02-02T06:59:16.023Z,4.03
2023-02-02T06:59:47.408Z,4.32
2023-02-02T07:00:20.587Z,5.05
2023-02-02T07:00:52.400Z,3.47
2023-02-02T07:01:24.051Z,4.43
2023-02-02T07:01:55.506Z,4.05
2023-02-02T07:02:26.892Z,4.20
2023-02-02T07:02:58.259Z,3.80
2023-02-02T07:03:29.637Z,3.83
2023-02-02T07:04:00.995Z,4.10
2023-02-02T07:04:32.349Z,4.35
2023-02-02T07:05:03.822Z,4.45
2023-02-02T07:05:35.143Z,3.80
2023-02-02T07:06:13.416Z,3.55
2023-02-02T07:06:44.956Z,3.90
2023-02-02T07:07:16.280Z,4.03
2023-02-02T07:07:47.638Z,4.60
2023-02-02T07:08:18.979Z,3.88
2023-02-02T07:08:59.655Z,4.15
2023-02-02T07:09:34.696Z,4.05
2023-02-02T07:10:06.294Z,4.30
2023-02-02T07:11:12.637Z,4.22
2023-02-02T07:11:29.949Z,3.78
2023-02-02T07:12:01.628Z,3.80
2023-02-02T07:12:33.003Z,4.50
2023-02-02T07:13:04.543Z,3.45